createdAt,value
2018-06-02T00:02:14.498Z,15.51
2018-06-02T00:04:43.739Z,15.45
2018-06-02T00:07:16.131Z,15.35
2018-06-02T00:09:47.830Z,15.23
2018-06-02T00:12:17.319Z,15.13
2018-06-02T00:14:46.431Z,15.05
2018-06-02T00:17:14.723Z,14.96
2018-06-02T00:19:46.954Z,14.95
2018-06-02T00:22:18.981Z,14.09
2018-06-02T00:24:47.842Z,14.88
2018-06-02T00:27:16.261Z,14.89
2018-06-02T00:29:43.941Z,14.81
2018-06-02T00:32:11.530Z,14.80
2018-06-02T00:34:39.172Z,14.80
2018-06-02T00:37:06.753Z,14.75
2018-06-02T00:39:34.338Z,14.62
2018-06-02T00:42:01.929Z,14.74
2018-06-02T00:44:29.503Z,14.75
2018-06-02T00:46:57.076Z,14.71
2018-06-02T00:49:24.686Z,14.62
2018-06-02T00:51:52.534Z,14.49
2018-06-02T00:54:31.871Z,14.48
2018-06-02T00:56:59.447Z,14.42
2018-06-02T00:59:27.029Z,14.44
2018-06-02T01:01:54.639Z,14.44
2018-06-02T01:04:22.224Z,14.41
2018-06-02T01:06:49.886Z,14.37
2018-06-02T01:09:17.466Z,14.34
2018-06-02T01:11:48.977Z,14.35
2018-06-02T01:14:16.564Z,14.37
2018-06-02T01:16:44.196Z,14.37
2018-06-02T01:19:11.743Z,14.33
2018-06-02T01:21:39.657Z,14.31
2018-06-02T01:24:07.277Z,14.28
2018-06-02T01:26:34.983Z,14.26
2018-06-02T01:29:02.559Z,14.24
2018-06-02T01:31:30.310Z,14.17
2018-06-02T01:33:57.916Z,14.08
2018-06-02T01:36:25.501Z,14.03
2018-06-02T01:38:53.099Z,13.96
2018-06-02T01:41:20.678Z,13.91
2018-06-02T01:43:48.242Z,13.89
2018-06-02T01:46:15.977Z,13.88
2018-06-02T01:48:43.744Z,13.83
2018-06-02T01:51:11.371Z,13.78
2018-06-02T01:53:38.929Z,13.68
2018-06-02T01:56:06.563Z,13.64
2018-06-02T01:58:34.197Z,13.63
2018-06-02T02:01:01.768Z,13.66
2018-06-02T02:03:29.335Z,13.61
2018-06-02T02:05:56.917Z,13.60
2018-06-02T02:08:24.500Z,13.57
2018-06-02T02:10:52.064Z,13.64
2018-06-02T02:13:19.665Z,13.73
2018-06-02T02:15:47.262Z,13.80
2018-06-02T02:18:14.836Z,13.84
2018-06-02T02:20:42.525Z,13.81
2018-06-02T02:23:10.117Z,13.72
2018-06-02T02:25:37.878Z,13.69
2018-06-02T02:28:05.490Z,13.64
2018-06-02T02:30:33.054Z,13.66
2018-06-02T02:33:00.614Z,13.70
2018-06-02T02:35:28.887Z,13.79
2018-06-02T02:37:56.583Z,13.86
2018-06-02T02:40:24.167Z,13.90
2018-06-02T02:42:51.741Z,13.95
2018-06-02T02:45:19.336Z,13.99
2018-06-02T02:47:46.897Z,13.95
2018-06-02T02:50:14.471Z,13.88
2018-06-02T02:52:42.073Z,13.93
2018-06-02T02:55:09.636Z,13.99
2018-06-02T02:57:37.200Z,13.98
2018-06-02T03:00:04.797Z,14.00
2018-06-02T03:02:32.362Z,14.00
2018-06-02T03:05:00.065Z,13.62
2018-06-02T03:07:27.661Z,13.99
2018-06-02T03:09:55.222Z,14.08
2018-06-02T03:12:22.875Z,14.11
2018-06-02T03:14:50.489Z,14.13
2018-06-02T03:17:18.207Z,13.99
2018-06-02T03:19:45.866Z,14.03
2018-06-02T03:22:13.435Z,14.11
2018-06-02T03:24:41.018Z,14.11
2018-06-02T03:27:08.606Z,14.16
2018-06-02T03:29:36.155Z,14.19
2018-06-02T03:32:03.716Z,14.20
2018-06-02T03:34:31.331Z,14.25
2018-06-02T03:36:59.027Z,14.21
2018-06-02T03:39:26.718Z,14.24
2018-06-02T03:41:54.321Z,14.22
2018-06-02T03:44:21.924Z,14.28
2018-06-02T03:46:49.479Z,14.33
2018-06-02T03:49:17.413Z,14.39
2018-06-02T03:51:44.975Z,14.38
2018-06-02T03:54:12.611Z,14.36
2018-06-02T03:56:40.238Z,14.40
2018-06-02T03:59:07.879Z,14.29
2018-06-02T04:01:35.453Z,14.32
2018-06-02T04:04:03.024Z,14.38
2018-06-02T04:06:30.649Z,14.45
2018-06-02T04:08:58.312Z,14.34
2018-06-02T04:11:25.871Z,14.42
2018-06-02T04:13:53.452Z,14.51
2018-06-02T04:16:21.037Z,14.54
2018-06-02T04:18:48.638Z,14.65
2018-06-02T04:21:16.225Z,14.66
2018-06-02T04:23:43.797Z,14.60
2018-06-02T04:26:11.456Z,14.73
2018-06-02T04:28:39.104Z,14.80
2018-06-02T04:31:06.884Z,14.86
2018-06-02T04:33:34.435Z,14.86
2018-06-02T04:36:02.127Z,14.97
2018-06-02T04:38:29.742Z,15.09
2018-06-02T04:40:57.330Z,15.22
2018-06-02T04:43:24.897Z,15.30
2018-06-02T04:45:52.549Z,15.37
2018-06-02T04:48:20.208Z,15.39
2018-06-02T04:50:47.874Z,15.42
2018-06-02T04:53:15.479Z,15.32
2018-06-02T04:55:43.053Z,15.35
2018-06-02T04:58:10.762Z,15.39
2018-06-02T05:00:38.406Z,15.52
2018-06-02T05:03:06.018Z,15.67
2018-06-02T05:05:33.628Z,15.65
2018-06-02T05:08:01.198Z,15.79
2018-06-02T05:10:28.789Z,15.98
2018-06-02T05:12:56.375Z,16.00
2018-06-02T05:15:24.056Z,16.04
2018-06-02T05:17:51.623Z,16.07
2018-06-02T05:20:19.227Z,16.02
2018-06-02T05:22:56.023Z,16.16
2018-06-02T05:25:23.710Z,16.13
2018-06-02T05:27:51.325Z,16.02
2018-06-02T05:30:18.887Z,16.02
2018-06-02T05:32:46.473Z,15.85
2018-06-02T05:35:14.095Z,15.96
2018-06-02T05:37:41.644Z,16.07
2018-06-02T05:40:09.429Z,15.92
2018-06-02T05:42:37.011Z,15.93
2018-06-02T05:45:04.645Z,15.93
2018-06-02T05:47:32.198Z,16.01
2018-06-02T05:49:59.813Z,16.02
2018-06-02T05:52:27.457Z,16.13
2018-06-02T05:54:55.069Z,16.06
2018-06-02T05:57:22.628Z,16.08
2018-06-02T05:59:50.217Z,16.02
2018-06-02T06:02:17.893Z,16.11
2018-06-02T06:04:45.581Z,16.19
2018-06-02T06:07:13.134Z,16.23
2018-06-02T06:09:40.693Z,16.27
2018-06-02T06:12:08.248Z,16.25
2018-06-02T06:14:36.774Z,16.44
2018-06-02T06:17:04.351Z,16.59
2018-06-02T06:19:32.228Z,16.60
2018-06-02T06:21:59.921Z,16.53
2018-06-02T06:24:27.563Z,16.64
2018-06-02T06:26:55.128Z,16.70
2018-06-02T06:29:22.710Z,16.76
2018-06-02T06:31:50.600Z,16.70
2018-06-02T06:34:18.243Z,16.68
2018-06-02T06:36:45.790Z,16.70
2018-06-02T06:39:13.365Z,16.71
2018-06-02T06:41:43.328Z,16.63
2018-06-02T06:44:11.102Z,16.76
2018-06-02T06:46:38.767Z,16.68
2018-06-02T06:49:06.485Z,16.70
2018-06-02T06:51:34.143Z,17.04
2018-06-02T06:54:01.850Z,17.20
2018-06-02T06:56:29.590Z,17.30
2018-06-02T06:58:57.228Z,17.46
2018-06-02T07:01:24.788Z,17.62
2018-06-02T07:03:52.410Z,17.62
2018-06-02T07:06:20.024Z,17.83
2018-06-02T07:08:47.679Z,17.91
2018-06-02T07:11:15.242Z,17.82
2018-06-02T07:13:42.796Z,17.55
2018-06-02T07:16:10.379Z,17.61
2018-06-02T07:18:37.973Z,17.73
2018-06-02T07:21:05.595Z,17.76
2018-06-02T07:23:33.254Z,17.81
2018-06-02T07:26:00.817Z,17.89
2018-06-02T07:28:28.709Z,18.06
2018-06-02T07:30:56.320Z,18.23
2018-06-02T07:33:23.924Z,18.36
2018-06-02T07:35:52.434Z,18.55
2018-06-02T07:38:20.084Z,18.88
2018-06-02T07:40:47.798Z,19.06
2018-06-02T07:43:15.381Z,18.80
2018-06-02T07:45:43.013Z,18.95
2018-06-02T07:48:10.580Z,19.11
2018-06-02T07:50:38.161Z,19.08
2018-06-02T07:53:05.712Z,18.98
2018-06-02T07:55:33.296Z,19.22
2018-06-02T07:58:00.896Z,19.40
2018-06-02T08:00:28.628Z,19.65
2018-06-02T08:02:56.224Z,19.20
2018-06-02T08:05:23.929Z,19.32
2018-06-02T08:07:51.607Z,19.40
2018-06-02T08:10:19.171Z,19.35
2018-06-02T08:12:46.719Z,19.04
2018-06-02T08:15:14.285Z,19.32
2018-06-02T08:17:41.860Z,19.47
2018-06-02T08:20:10.009Z,19.55
2018-06-02T08:22:37.675Z,19.88
2018-06-02T08:25:05.264Z,20.03
2018-06-02T08:27:32.912Z,20.25
2018-06-02T08:30:00.480Z,19.93
2018-06-02T08:32:28.117Z,19.97
2018-06-02T08:34:55.684Z,20.16
2018-06-02T08:37:23.253Z,20.24
2018-06-02T08:39:50.906Z,20.28
2018-06-02T08:42:18.519Z,20.38
2018-06-02T08:44:46.248Z,20.49
2018-06-02T08:47:13.828Z,20.65
2018-06-02T08:49:41.397Z,20.67
2018-06-02T08:52:08.945Z,20.30
2018-06-02T08:54:36.670Z,20.49
2018-06-02T08:57:04.404Z,20.44
2018-06-02T08:59:31.984Z,20.87
2018-06-02T09:01:59.595Z,20.91
2018-06-02T09:04:27.169Z,21.03
2018-06-02T09:06:54.788Z,21.05
2018-06-02T09:09:22.395Z,20.77
2018-06-02T09:11:49.997Z,20.64
2018-06-02T09:14:17.671Z,20.43
2018-06-02T09:16:45.306Z,20.52
2018-06-02T09:19:12.991Z,20.70
2018-06-02T09:21:40.704Z,20.77
2018-06-02T09:24:08.295Z,20.85
2018-06-02T09:26:35.886Z,20.76
2018-06-02T09:29:03.431Z,20.34
2018-06-02T09:31:31.154Z,20.84
2018-06-02T09:33:58.765Z,21.31
2018-06-02T09:36:26.366Z,21.42
2018-06-02T09:38:53.934Z,21.54
2018-06-02T09:41:21.591Z,21.59
2018-06-02T09:43:49.169Z,21.82
2018-06-02T09:46:16.780Z,21.75
2018-06-02T09:48:44.379Z,21.91
2018-06-02T09:51:11.980Z,22.01
2018-06-02T09:53:40.428Z,22.03
2018-06-02T09:56:08.066Z,22.06
2018-06-02T09:58:35.643Z,22.27
2018-06-02T10:01:03.215Z,22.41
2018-06-02T10:03:30.826Z,22.36
2018-06-02T10:05:58.406Z,21.75
2018-06-02T10:08:26.031Z,21.51
2018-06-02T10:10:53.721Z,21.74
2018-06-02T10:13:21.285Z,22.26
2018-06-02T10:15:48.864Z,22.66
2018-06-02T10:18:16.563Z,22.95
2018-06-02T10:20:44.330Z,22.78
2018-06-02T10:23:12.013Z,22.82
2018-06-02T10:25:39.598Z,23.24
2018-06-02T10:28:07.312Z,23.42
2018-06-02T10:30:34.898Z,23.62
2018-06-02T10:33:02.494Z,23.56
2018-06-02T10:35:30.289Z,23.39
2018-06-02T10:37:57.874Z,23.62
2018-06-02T10:40:25.500Z,23.99
2018-06-02T10:42:53.056Z,23.82
2018-06-02T10:45:20.893Z,23.77
2018-06-02T10:47:48.492Z,23.75
2018-06-02T10:50:16.604Z,23.88
2018-06-02T10:52:44.156Z,23.96
2018-06-02T10:55:11.795Z,23.82
2018-06-02T10:57:39.889Z,24.05
2018-06-02T11:00:07.773Z,24.25
2018-06-02T11:02:35.385Z,23.93
2018-06-02T11:05:02.939Z,24.15
2018-06-02T11:07:30.803Z,24.36
2018-06-02T11:09:58.408Z,24.43
2018-06-02T11:12:25.964Z,24.56
2018-06-02T11:14:53.546Z,24.10
2018-06-02T11:17:21.147Z,24.45
2018-06-02T11:19:48.911Z,24.92
2018-06-02T11:22:16.623Z,25.03
2018-06-02T11:24:44.282Z,25.11
2018-06-02T11:27:11.930Z,25.61
2018-06-02T11:29:39.517Z,26.06
2018-06-02T11:32:07.176Z,25.74
2018-06-02T11:34:34.785Z,25.45
2018-06-02T11:37:02.403Z,25.68
2018-06-02T11:39:30.033Z,25.56
2018-06-02T11:41:57.709Z,25.51
2018-06-02T11:44:25.348Z,25.26
2018-06-02T11:46:53.002Z,25.33
2018-06-02T11:49:21.241Z,25.74
2018-06-02T11:51:48.895Z,25.39
2018-06-02T11:54:16.576Z,25.71
2018-06-02T11:56:44.171Z,26.10
2018-06-02T11:59:11.739Z,26.41
2018-06-02T12:01:39.300Z,26.51
2018-06-02T12:04:07.098Z,26.72
2018-06-02T12:06:34.757Z,27.20
2018-06-02T12:09:02.360Z,27.03
2018-06-02T12:11:29.944Z,27.21
2018-06-02T12:13:57.529Z,27.59
2018-06-02T12:16:25.209Z,28.17
2018-06-02T12:18:52.828Z,28.41
2018-06-02T12:21:20.433Z,28.77
2018-06-02T12:23:48.016Z,29.32
2018-06-02T12:26:15.706Z,30.00
2018-06-02T12:28:43.325Z,30.97
2018-06-02T12:31:10.911Z,31.54
2018-06-02T12:33:38.470Z,32.92
2018-06-02T12:36:06.040Z,34.31
2018-06-02T12:38:33.607Z,35.57
2018-06-02T12:41:01.260Z,36.12
2018-06-02T12:43:28.973Z,35.90
2018-06-02T12:45:56.656Z,37.23
2018-06-02T12:48:24.318Z,37.68
2018-06-02T12:50:51.885Z,38.32
2018-06-02T12:53:19.463Z,38.59
2018-06-02T12:55:47.126Z,39.08
2018-06-02T12:58:14.778Z,38.50
2018-06-02T13:00:42.428Z,39.97
2018-06-02T13:03:10.002Z,40.04
2018-06-02T13:05:37.867Z,40.03
2018-06-02T13:08:05.440Z,40.68
2018-06-02T13:10:33.351Z,38.94
2018-06-02T13:13:00.915Z,38.85
2018-06-02T13:15:28.606Z,39.30
2018-06-02T13:17:56.288Z,39.87
2018-06-02T13:20:23.859Z,39.97
2018-06-02T13:22:51.435Z,38.25
2018-06-02T13:25:18.974Z,38.32
2018-06-02T13:27:46.536Z,37.08
2018-06-02T13:30:14.119Z,36.56
2018-06-02T13:32:41.689Z,37.36
2018-06-02T13:35:09.356Z,37.35
2018-06-02T13:37:36.949Z,36.18
2018-06-02T13:40:04.545Z,36.30
2018-06-02T13:42:32.133Z,34.25
2018-06-02T13:44:59.953Z,33.37
2018-06-02T13:47:27.553Z,32.88
2018-06-02T13:49:55.118Z,33.14
2018-06-02T13:52:22.737Z,32.95
2018-06-02T13:54:50.334Z,32.25
2018-06-02T13:57:18.051Z,31.50
2018-06-02T13:59:45.847Z,31.27
2018-06-02T14:02:13.494Z,30.22
2018-06-02T14:04:41.068Z,29.65
2018-06-02T14:07:08.917Z,29.48
2018-06-02T14:09:36.532Z,28.83
2018-06-02T14:12:04.088Z,28.36
2018-06-02T14:14:31.730Z,27.99
2018-06-02T14:16:59.316Z,28.06
2018-06-02T14:19:26.968Z,28.30
2018-06-02T14:21:54.526Z,28.50
2018-06-02T14:24:22.096Z,28.51
2018-06-02T14:26:49.808Z,27.07
2018-06-02T14:29:17.382Z,27.53
2018-06-02T14:31:44.938Z,27.62
2018-06-02T14:34:12.548Z,27.96
2018-06-02T14:36:40.101Z,28.19
2018-06-02T14:39:07.670Z,28.31
2018-06-02T14:41:35.312Z,28.62
2018-06-02T14:44:02.896Z,29.08
2018-06-02T14:46:30.459Z,29.81
2018-06-02T14:48:58.064Z,30.19
2018-06-02T14:51:25.655Z,31.02
2018-06-02T14:53:53.300Z,31.49
2018-06-02T14:56:21.093Z,31.28
2018-06-02T14:58:48.650Z,31.00
2018-06-02T15:01:16.235Z,31.57
2018-06-02T15:03:43.819Z,32.02
2018-06-02T15:06:11.379Z,31.97
2018-06-02T15:08:38.960Z,32.19
2018-06-02T15:11:09.310Z,31.64
2018-06-02T15:13:36.924Z,31.60
2018-06-02T15:16:05.361Z,31.22
2018-06-02T15:18:33.030Z,30.31
2018-06-02T15:21:00.880Z,29.59
2018-06-02T15:23:28.605Z,28.62
2018-06-02T15:25:56.224Z,26.96
2018-06-02T15:28:24.095Z,25.41
2018-06-02T15:30:52.513Z,25.24
2018-06-02T15:33:20.114Z,25.06
2018-06-02T15:35:47.802Z,25.19
2018-06-02T15:38:15.472Z,25.37
2018-06-02T15:40:43.073Z,25.21
2018-06-02T15:43:10.686Z,24.74
2018-06-02T15:45:38.250Z,24.53
2018-06-02T15:48:06.044Z,24.35
2018-06-02T15:50:36.406Z,24.22
2018-06-02T15:53:04.441Z,24.13
2018-06-02T15:55:32.635Z,24.01
2018-06-02T15:58:00.956Z,23.98
2018-06-02T16:00:29.146Z,23.99
2018-06-02T16:02:56.756Z,23.92
2018-06-02T16:05:24.875Z,23.81
2018-06-02T16:07:52.447Z,23.67
2018-06-02T16:10:20.119Z,23.83
2018-06-02T16:12:48.299Z,23.79
2018-06-02T16:15:16.047Z,23.74
2018-06-02T16:17:44.442Z,23.56
2018-06-02T16:20:12.235Z,23.46
2018-06-02T16:22:39.861Z,23.46
2018-06-02T16:25:07.532Z,23.50
2018-06-02T16:27:35.091Z,23.44
2018-06-02T16:30:03.418Z,23.28
2018-06-02T16:32:31.001Z,23.30
2018-06-02T16:34:58.615Z,23.23
2018-06-02T16:37:26.223Z,23.23
2018-06-02T16:39:53.832Z,23.20
2018-06-02T16:42:22.079Z,23.08
2018-06-02T16:44:50.307Z,23.00
2018-06-02T16:47:17.956Z,23.02
2018-06-02T16:49:46.416Z,22.99
2018-06-02T16:52:13.985Z,22.86
2018-06-02T16:54:41.638Z,22.78
2018-06-02T16:57:09.309Z,22.77
2018-06-02T16:59:37.330Z,22.71
2018-06-02T17:02:05.036Z,22.69
2018-06-02T17:04:32.684Z,22.64
2018-06-02T17:07:00.898Z,22.57
2018-06-02T17:09:28.458Z,22.44
2018-06-02T17:11:56.092Z,22.37
2018-06-02T17:14:23.737Z,22.38
2018-06-02T17:16:51.526Z,22.37
2018-06-02T17:19:19.144Z,22.41
2018-06-02T17:21:46.959Z,22.39
2018-06-02T17:24:14.897Z,22.27
2018-06-02T17:26:42.505Z,22.29
2018-06-02T17:29:10.101Z,22.24
2018-06-02T17:31:37.697Z,22.16
2018-06-02T17:34:05.891Z,22.10
2018-06-02T17:36:33.724Z,22.10
2018-06-02T17:39:01.297Z,22.02
2018-06-02T17:41:29.110Z,21.95
2018-06-02T17:43:56.695Z,21.89
2018-06-02T17:46:24.285Z,21.78
2018-06-02T17:48:52.045Z,21.74
2018-06-02T17:51:20.660Z,21.71
2018-06-02T17:53:48.508Z,21.74
2018-06-02T17:56:16.099Z,21.72
2018-06-02T17:58:43.661Z,21.63
2018-06-02T18:01:11.624Z,21.54
2018-06-02T18:03:39.352Z,21.51
2018-06-02T18:06:07.140Z,21.49
2018-06-02T18:08:34.754Z,21.43
2018-06-02T18:11:02.371Z,21.36
2018-06-02T18:13:30.124Z,21.29
2018-06-02T18:15:57.742Z,21.22
2018-06-02T18:18:25.393Z,21.16
2018-06-02T18:20:53.041Z,21.09
2018-06-02T18:23:20.611Z,21.03
2018-06-02T18:25:48.241Z,20.94
2018-06-02T18:28:16.677Z,20.87
2018-06-02T18:33:11.183Z,20.78
2018-06-02T18:35:38.847Z,20.69
2018-06-02T18:38:06.701Z,20.62
2018-06-02T18:40:34.399Z,20.52
2018-06-02T18:43:02.521Z,20.47
2018-06-02T18:45:31.316Z,20.44
2018-06-02T18:47:58.906Z,20.34
2018-06-02T18:50:26.470Z,20.28
2018-06-02T18:52:54.165Z,20.17
2018-06-02T18:55:21.762Z,20.05
2018-06-02T18:57:49.304Z,19.96
2018-06-02T19:00:16.895Z,19.87
2018-06-02T19:02:44.499Z,19.82
2018-06-02T19:05:12.508Z,19.75
2018-06-02T19:07:40.165Z,19.65
2018-06-02T19:10:07.749Z,19.62
2018-06-02T19:12:35.340Z,19.56
2018-06-02T19:15:03.792Z,19.46
2018-06-02T19:17:31.445Z,19.39
2018-06-02T19:19:59.309Z,19.31
2018-06-02T19:22:26.928Z,19.23
2018-06-02T19:24:54.552Z,19.16
2018-06-02T19:27:22.199Z,19.16
2018-06-02T19:29:49.765Z,19.08
2018-06-02T19:32:17.553Z,19.00
2018-06-02T19:34:45.149Z,18.96
2018-06-02T19:37:12.733Z,18.84
2018-06-02T19:39:40.552Z,18.81
2018-06-02T19:42:08.331Z,18.72
2018-06-02T19:44:36.148Z,18.69
2018-06-02T19:47:03.718Z,18.60
2018-06-02T19:50:03.434Z,18.26
2018-06-02T19:52:32.369Z,18.24
2018-06-02T19:55:01.094Z,18.19
2018-06-02T19:57:29.803Z,18.05
2018-06-02T19:59:58.591Z,18.00
2018-06-02T20:02:27.309Z,17.96
2018-06-02T20:04:56.158Z,17.86
2018-06-02T20:07:25.299Z,17.76
2018-06-02T20:09:54.006Z,17.71
2018-06-02T20:12:22.795Z,17.65
2018-06-02T20:14:51.748Z,17.63
2018-06-02T20:17:20.802Z,17.56
2018-06-02T20:19:49.379Z,17.45
2018-06-02T20:22:18.102Z,17.39
2018-06-02T20:24:46.938Z,17.33
2018-06-02T20:27:15.868Z,17.24
2018-06-02T20:29:44.982Z,17.23
2018-06-02T20:32:13.623Z,17.21
2018-06-02T20:34:42.265Z,17.04
2018-06-02T20:37:11.006Z,16.95
2018-06-02T20:39:39.687Z,16.85
2018-06-02T20:42:08.636Z,16.81
2018-06-02T20:44:37.572Z,16.74
2018-06-02T20:47:06.333Z,16.70
2018-06-02T20:49:35.399Z,16.66
2018-06-02T20:52:04.205Z,16.60
2018-06-02T20:54:32.956Z,16.39
2018-06-02T20:57:01.862Z,16.51
2018-06-02T20:59:30.600Z,16.53
2018-06-02T21:02:00.371Z,16.53
2018-06-02T21:04:28.970Z,16.43
2018-06-02T21:06:57.824Z,16.31
2018-06-02T21:09:26.961Z,16.31
2018-06-02T21:11:55.831Z,16.23
2018-06-02T21:14:24.446Z,16.22
2018-06-02T21:16:53.094Z,16.16
2018-06-02T21:19:21.972Z,16.09
2018-06-02T21:21:50.521Z,16.08
2018-06-02T21:24:19.408Z,16.09
2018-06-02T21:26:48.169Z,15.93
2018-06-02T21:29:17.054Z,15.82
2018-06-02T21:31:45.794Z,15.80
2018-06-02T21:34:15.656Z,15.74
2018-06-02T21:36:44.558Z,15.70
2018-06-02T21:39:13.337Z,15.71
2018-06-02T21:41:42.252Z,15.67
2018-06-02T21:44:18.625Z,15.61
2018-06-02T21:46:47.453Z,15.54
2018-06-02T21:49:16.058Z,15.51
2018-06-02T21:51:44.786Z,15.50
2018-06-02T21:54:13.581Z,15.47
2018-06-02T21:56:42.513Z,15.41
2018-06-02T21:59:11.154Z,15.35
2018-06-02T22:01:39.827Z,15.32
2018-06-02T22:04:08.526Z,15.30
2018-06-02T22:06:37.489Z,15.24
2018-06-02T22:09:06.704Z,15.17
2018-06-02T22:11:35.500Z,15.14
2018-06-02T22:14:04.219Z,15.03
2018-06-02T22:16:33.010Z,14.99
2018-06-02T22:19:01.586Z,15.01
2018-06-02T22:21:30.417Z,15.00
2018-06-02T22:23:59.132Z,14.97
2018-06-02T22:26:27.691Z,14.93
2018-06-02T22:28:56.607Z,14.86
2018-06-02T22:31:25.627Z,14.77
2018-06-02T22:33:54.345Z,14.65
2018-06-02T22:36:23.422Z,14.44
2018-06-02T22:38:52.230Z,14.32
2018-06-02T22:41:20.949Z,14.30
2018-06-02T22:43:49.683Z,14.19
2018-06-02T22:46:18.329Z,14.09
2018-06-02T22:48:47.039Z,14.07
2018-06-02T22:51:15.768Z,14.06
2018-06-02T22:53:44.563Z,13.98
2018-06-02T22:56:13.533Z,13.94
2018-06-02T22:58:42.514Z,13.88
2018-06-02T23:01:11.230Z,13.83
2018-06-02T23:03:39.959Z,13.76
2018-06-02T23:06:08.733Z,13.78
2018-06-02T23:08:37.926Z,13.74
2018-06-02T23:11:06.619Z,13.70
2018-06-02T23:13:35.515Z,13.69
2018-06-02T23:16:04.164Z,13.68
2018-06-02T23:18:32.941Z,13.57
2018-06-02T23:21:01.632Z,13.56
2018-06-02T23:23:30.370Z,13.52
2018-06-02T23:25:59.051Z,13.51
2018-06-02T23:28:27.725Z,13.42
2018-06-02T23:30:56.391Z,13.39
2018-06-02T23:33:25.266Z,13.41
2018-06-02T23:35:54.196Z,13.37
2018-06-02T23:38:23.003Z,13.31
2018-06-02T23:40:51.924Z,13.31
2018-06-02T23:43:20.579Z,13.25
2018-06-02T23:45:49.429Z,13.14
2018-06-02T23:48:18.304Z,13.07
2018-06-02T23:50:46.974Z,13.04
2018-06-02T23:53:47.034Z,12.98
2018-06-02T23:56:15.866Z,12.92
2018-06-02T23:58:44.584Z,12.71
